createdAt,value
2024-02-29T00:02:28.738Z,100140.16
2024-02-29T00:06:30.685Z,100135.53
2024-02-29T00:10:32.758Z,100133.88
2024-02-29T00:14:34.731Z,100138.94
2024-02-29T00:18:36.781Z,100128.66
2024-02-29T00:22:39.642Z,100115.19
2024-02-29T00:26:42.328Z,100126.09
2024-02-29T00:30:44.336Z,100123.38
2024-02-29T00:34:46.794Z,100128.44
2024-02-29T00:38:51.912Z,100129.06
2024-02-29T00:42:57.850Z,100115.41
2024-02-29T00:47:00.262Z,100110.59
2024-02-29T00:51:02.205Z,100102.19
2024-02-29T00:55:04.832Z,100098.84
2024-02-29T00:59:06.614Z,100092.31
2024-02-29T01:03:08.533Z,100097.78
2024-02-29T01:07:10.650Z,100077.59
2024-02-29T01:11:13.442Z,100085.13
2024-02-29T01:15:16.679Z,100079.03
2024-02-29T01:19:18.750Z,100074.78
2024-02-29T01:23:20.459Z,100076.44
2024-02-29T01:27:22.690Z,100069.31
2024-02-29T01:31:24.547Z,100071.38
2024-02-29T01:35:26.253Z,100063.13
2024-02-29T01:39:27.991Z,100059.09
2024-02-29T01:43:30.765Z,100055.28
2024-02-29T01:47:36.735Z,100045.75
2024-02-29T01:51:54.406Z,100046.31
2024-02-29T01:56:03.348Z,100043.28
2024-02-29T02:00:05.996Z,100043.00
2024-02-29T02:04:09.338Z,100031.84
2024-02-29T02:08:13.057Z,100030.56
2024-02-29T02:12:14.742Z,100033.69
2024-02-29T02:16:17.477Z,100027.97
2024-02-29T02:20:20.457Z,100025.66
2024-02-29T02:24:25.660Z,100021.66
2024-02-29T02:28:28.187Z,100013.88
2024-02-29T02:32:29.859Z,100015.13
2024-02-29T02:36:31.582Z,100004.63
2024-02-29T02:40:38.452Z,100005.00
2024-02-29T02:44:40.139Z,99993.47
2024-02-29T02:48:43.078Z,99987.75
2024-02-29T02:52:45.451Z,99989.03
2024-02-29T02:56:48.665Z,99978.31
2024-02-29T03:00:50.445Z,99977.88
2024-02-29T03:04:52.451Z,99979.28
2024-02-29T03:08:54.229Z,99974.06
2024-02-29T03:12:56.044Z,99955.56
2024-02-29T03:16:57.796Z,99955.13
2024-02-29T03:20:59.906Z,99958.91
2024-02-29T03:25:01.809Z,99951.78
2024-02-29T03:29:03.893Z,99941.72
2024-02-29T03:33:05.637Z,99941.72
2024-02-29T03:37:07.784Z,99941.28
2024-02-29T03:41:09.515Z,99936.69
2024-02-29T03:45:11.318Z,99927.03
2024-02-29T03:49:13.086Z,99921.16
2024-02-29T03:53:15.850Z,99920.50
2024-02-29T03:57:19.166Z,99911.88
2024-02-29T04:01:20.980Z,99917.91
2024-02-29T04:05:36.203Z,99911.19
2024-02-29T04:09:47.746Z,99914.91
2024-02-29T04:13:49.632Z,99913.84
2024-02-29T04:17:51.555Z,99908.81
2024-02-29T04:21:53.397Z,99901.66
2024-02-29T04:25:55.247Z,99895.38
2024-02-29T04:29:56.968Z,99894.09
2024-02-29T04:33:58.862Z,99902.97
2024-02-29T04:38:00.779Z,99897.47
2024-02-29T04:42:02.574Z,99892.81
2024-02-29T04:46:04.705Z,99898.63
2024-02-29T04:50:06.608Z,99900.69
2024-02-29T04:54:08.867Z,99900.53
2024-02-29T04:58:10.633Z,99908.63
2024-02-29T05:02:12.619Z,99895.59
2024-02-29T05:06:17.835Z,99902.69
2024-02-29T05:10:19.684Z,99892.47
2024-02-29T05:14:21.561Z,99891.91
2024-02-29T05:18:23.404Z,99884.38
2024-02-29T05:22:25.675Z,99882.31
2024-02-29T05:26:31.291Z,99882.31
2024-02-29T05:30:33.800Z,99885.03
2024-02-29T05:34:35.675Z,99881.28
2024-02-29T05:38:37.458Z,99878.56
2024-02-29T05:42:39.133Z,99864.78
2024-02-29T05:46:40.812Z,99853.69
2024-02-29T05:50:42.717Z,99855.41
2024-02-29T05:54:45.265Z,99858.75
2024-02-29T05:58:47.023Z,99853.31
2024-02-29T06:02:51.381Z,99850.78
2024-02-29T06:06:54.592Z,99857.72
2024-02-29T06:10:56.317Z,99855.00
2024-02-29T06:14:59.207Z,99847.88
2024-02-29T06:19:01.234Z,99851.25
2024-02-29T06:23:03.317Z,99845.41
2024-02-29T06:27:05.139Z,99851.50
2024-02-29T06:31:10.576Z,99853.81
2024-02-29T06:35:12.793Z,99856.03
2024-02-29T06:39:14.574Z,99843.50
2024-02-29T06:43:16.450Z,99846.47
2024-02-29T06:47:18.138Z,99839.38
2024-02-29T06:51:26.909Z,99844.03
2024-02-29T06:55:28.957Z,99839.50
2024-02-29T06:59:31.008Z,99842.69
2024-02-29T07:03:32.653Z,99845.69
2024-02-29T07:07:34.509Z,99860.63
2024-02-29T07:11:36.182Z,99857.31
2024-02-29T07:15:38.875Z,99841.47
2024-02-29T07:19:40.699Z,99829.13
2024-02-29T07:23:42.938Z,99822.88
2024-02-29T07:27:46.620Z,99836.13
2024-02-29T07:31:52.762Z,99831.75
2024-02-29T07:35:55.787Z,99823.59
2024-02-29T07:39:58.181Z,99834.94
2024-02-29T07:44:00.038Z,99829.09
2024-02-29T07:48:04.411Z,99817.56
2024-02-29T07:52:06.794Z,99814.84
2024-02-29T07:56:09.292Z,99807.09
2024-02-29T08:00:11.881Z,99806.03
2024-02-29T08:04:13.688Z,99805.41
2024-02-29T08:08:15.420Z,99800.97
2024-02-29T08:12:18.663Z,99811.47
2024-02-29T08:16:21.569Z,99803.88
2024-02-29T08:20:26.805Z,99807.41
2024-02-29T08:24:28.509Z,99808.22
2024-02-29T08:28:30.147Z,99804.22
2024-02-29T08:32:31.848Z,99794.00
2024-02-29T08:36:33.654Z,99800.69
2024-02-29T08:40:35.283Z,99799.38
2024-02-29T08:44:37.451Z,99799.34
2024-02-29T08:48:39.240Z,99788.34
2024-02-29T08:52:43.204Z,99785.53
2024-02-29T08:56:44.962Z,99785.13
2024-02-29T09:00:46.927Z,99773.63
2024-02-29T09:04:48.623Z,99777.53
2024-02-29T09:08:50.360Z,99768.72
2024-02-29T09:12:52.531Z,99780.03
2024-02-29T09:16:54.411Z,99766.41
2024-02-29T09:20:58.914Z,99756.28
2024-02-29T09:25:00.722Z,99749.22
2024-02-29T09:29:02.469Z,99735.38
2024-02-29T09:33:04.302Z,99737.69
2024-02-29T09:37:07.418Z,99736.81
2024-02-29T09:41:31.954Z,99741.13
2024-02-29T09:45:39.339Z,99733.41
2024-02-29T09:49:42.344Z,99731.75
2024-02-29T09:53:45.453Z,99728.44
2024-02-29T09:57:47.525Z,99709.25
2024-02-29T10:01:51.380Z,99706.97
2024-02-29T10:05:53.781Z,99704.50
2024-02-29T10:09:56.033Z,99708.75
2024-02-29T10:13:58.689Z,99706.81
2024-02-29T10:18:01.565Z,99697.25
2024-02-29T10:22:03.270Z,99691.56
2024-02-29T10:26:05.895Z,99690.63
2024-02-29T10:30:11.593Z,99681.81
2024-02-29T10:34:14.025Z,99677.13
2024-02-29T10:38:16.575Z,99671.75
2024-02-29T10:42:20.194Z,99663.13
2024-02-29T10:46:22.349Z,99659.22
2024-02-29T10:50:27.945Z,99647.06
2024-02-29T10:54:35.626Z,99642.06
2024-02-29T10:58:44.162Z,99632.50
2024-02-29T11:02:46.702Z,99630.06
2024-02-29T11:06:49.709Z,99626.59
2024-02-29T11:10:55.404Z,99610.72
2024-02-29T11:15:00.517Z,99605.34
2024-02-29T11:19:03.981Z,99598.44
2024-02-29T11:23:11.112Z,99584.78
2024-02-29T11:27:13.795Z,99580.13
2024-02-29T11:31:19.362Z,99569.06
2024-02-29T11:35:23.938Z,99565.09
2024-02-29T11:39:25.648Z,99558.31
2024-02-29T11:43:27.723Z,99541.00
2024-02-29T11:47:29.484Z,99536.34
2024-02-29T11:51:32.060Z,99525.44
2024-02-29T11:55:35.219Z,99509.91
2024-02-29T11:59:39.053Z,99505.66
2024-02-29T12:03:41.042Z,99501.56
2024-02-29T12:07:43.317Z,99495.31
2024-02-29T12:11:45.972Z,99481.72
2024-02-29T12:15:48.457Z,99474.91
2024-02-29T12:19:52.482Z,99469.34
2024-02-29T12:23:58.217Z,99460.34
2024-02-29T12:28:00.037Z,99464.47
2024-02-29T12:32:03.316Z,99451.72
2024-02-29T12:36:06.368Z,99451.81
2024-02-29T12:40:09.746Z,99446.22
2024-02-29T12:44:12.184Z,99430.72
2024-02-29T12:48:14.027Z,99413.03
2024-02-29T12:52:16.225Z,99406.13
2024-02-29T12:56:20.555Z,99391.66
2024-02-29T13:00:24.708Z,99380.19
2024-02-29T13:04:27.091Z,99375.25
2024-02-29T13:08:29.007Z,99368.13
2024-02-29T13:12:31.063Z,99362.22
2024-02-29T13:16:33.163Z,99342.63
2024-02-29T13:20:35.438Z,99335.34
2024-02-29T13:24:37.125Z,99331.28
2024-02-29T13:28:40.973Z,99320.25
2024-02-29T13:32:42.760Z,99315.06
2024-02-29T13:36:44.588Z,99317.09
2024-02-29T13:40:49.148Z,99304.28
2024-02-29T13:44:51.227Z,99287.94
2024-02-29T13:48:53.167Z,99280.78
2024-02-29T13:52:55.507Z,99288.00
2024-02-29T13:56:57.433Z,99271.53
2024-02-29T14:00:59.223Z,99272.25
2024-02-29T14:05:01.227Z,99259.88
2024-02-29T14:09:04.247Z,99256.03
2024-02-29T14:13:06.349Z,99241.13
2024-02-29T14:17:08.218Z,99231.44
2024-02-29T14:21:09.913Z,99225.91
2024-02-29T14:25:11.958Z,99220.94
2024-02-29T14:29:13.774Z,99211.03
2024-02-29T14:33:16.605Z,99201.09
2024-02-29T14:37:18.559Z,99194.72
2024-02-29T14:41:21.108Z,99180.09
2024-02-29T14:45:22.891Z,99172.97
2024-02-29T14:49:24.749Z,99163.31
2024-02-29T14:53:26.962Z,99163.56
2024-02-29T14:57:28.680Z,99156.56
2024-02-29T15:01:32.803Z,99154.06
2024-02-29T15:05:36.161Z,99140.75
2024-02-29T15:09:40.401Z,99132.44
2024-02-29T15:13:42.628Z,99125.19
2024-02-29T15:17:44.651Z,99120.81
2024-02-29T15:21:47.092Z,99115.84
2024-02-29T15:25:49.000Z,99112.81
2024-02-29T15:29:51.516Z,99113.13
2024-02-29T15:33:53.560Z,99116.22
2024-02-29T15:37:55.926Z,99100.78
2024-02-29T15:41:57.864Z,99098.84
2024-02-29T15:45:59.862Z,99093.66
2024-02-29T15:50:01.773Z,99091.47
2024-02-29T15:54:03.645Z,99086.81
2024-02-29T15:58:05.721Z,99079.66
2024-02-29T16:02:07.764Z,99075.25
2024-02-29T16:06:12.827Z,99074.50
2024-02-29T16:10:14.952Z,99067.03
2024-02-29T16:14:16.867Z,99068.47
2024-02-29T16:18:19.069Z,99057.97
2024-02-29T16:22:21.082Z,99042.81
2024-02-29T16:26:23.063Z,99043.94
2024-02-29T16:30:25.070Z,99038.97
2024-02-29T16:34:26.953Z,99039.53
2024-02-29T16:38:30.130Z,99029.88
2024-02-29T16:42:32.004Z,99022.69
2024-02-29T16:46:34.595Z,99022.94
2024-02-29T16:50:36.730Z,99021.00
2024-02-29T16:54:38.646Z,99008.88
2024-02-29T16:58:40.658Z,99009.66
2024-02-29T17:02:42.493Z,99010.97
2024-02-29T17:06:45.318Z,99012.81
2024-02-29T17:10:47.052Z,99013.78
2024-02-29T17:14:49.217Z,99012.22
2024-02-29T17:18:51.307Z,99009.06
2024-02-29T17:22:53.848Z,99014.91
2024-02-29T17:27:04.328Z,99014.75
2024-02-29T17:31:06.460Z,99026.69
2024-02-29T17:35:08.589Z,99035.34
2024-02-29T17:39:10.366Z,99031.34
2024-02-29T17:43:15.169Z,99021.59
2024-02-29T17:47:18.969Z,99015.66
2024-02-29T17:51:20.896Z,99006.50
2024-02-29T17:55:22.670Z,99000.63
2024-02-29T17:59:24.560Z,98995.81
2024-02-29T18:03:26.218Z,99003.13
2024-02-29T18:07:27.998Z,98996.75
2024-02-29T18:11:29.682Z,98994.19
2024-02-29T18:15:37.949Z,98986.41
2024-02-29T18:19:39.902Z,98987.91
2024-02-29T18:23:41.598Z,98990.00
2024-02-29T18:27:43.376Z,98982.78
2024-02-29T18:31:46.639Z,98974.50
2024-02-29T18:35:59.229Z,98976.06
2024-02-29T18:40:08.705Z,98966.94
2024-02-29T18:44:12.164Z,98966.03
2024-02-29T18:48:14.208Z,98962.41
2024-02-29T18:52:16.332Z,98955.75
2024-02-29T18:56:18.263Z,98952.09
2024-02-29T19:00:21.604Z,98943.31
2024-02-29T19:04:23.544Z,98941.06
2024-02-29T19:08:25.827Z,98943.81
2024-02-29T19:12:29.017Z,98937.16
2024-02-29T19:16:30.876Z,98936.00
2024-02-29T19:20:32.767Z,98933.19
2024-02-29T19:24:34.575Z,98920.25
2024-02-29T19:28:38.297Z,98916.25
2024-02-29T19:32:40.125Z,98906.53
2024-02-29T19:36:41.893Z,98903.63
2024-02-29T19:40:43.939Z,98894.50
2024-02-29T19:44:45.964Z,98899.06
2024-02-29T19:48:48.030Z,98898.66
2024-02-29T19:52:50.003Z,98893.34
2024-02-29T19:56:51.727Z,98886.94
2024-02-29T20:01:02.001Z,98884.34
2024-02-29T20:05:04.091Z,98881.53
2024-02-29T20:09:09.443Z,98880.34
2024-02-29T20:13:11.811Z,98883.09
2024-02-29T20:17:13.792Z,98869.06
2024-02-29T20:21:17.363Z,98860.25
2024-02-29T20:25:19.142Z,98866.59
2024-02-29T20:29:20.956Z,98864.91
2024-02-29T20:33:22.823Z,98851.97
2024-02-29T20:37:24.838Z,98860.19
2024-02-29T20:41:27.051Z,98863.16
2024-02-29T20:45:28.918Z,98860.31
2024-02-29T20:49:30.697Z,98863.56
2024-02-29T20:53:32.853Z,98862.41
2024-02-29T20:57:34.708Z,98859.06
2024-02-29T21:01:36.591Z,98861.22
2024-02-29T21:05:38.639Z,98854.09
2024-02-29T21:09:41.516Z,98853.25
2024-02-29T21:13:43.785Z,98851.34
2024-02-29T21:17:46.738Z,98844.22
2024-02-29T21:21:48.734Z,98844.00
2024-02-29T21:25:51.845Z,98835.19
2024-02-29T21:29:53.582Z,98846.13
2024-02-29T21:33:56.495Z,98832.69
2024-02-29T21:37:59.438Z,98831.53
2024-02-29T21:42:01.189Z,98831.53
2024-02-29T21:46:03.099Z,98835.34
2024-02-29T21:50:04.996Z,98830.59
2024-02-29T21:54:06.685Z,98830.88
2024-02-29T21:58:09.579Z,98820.41
2024-02-29T22:02:11.317Z,98825.28
2024-02-29T22:06:20.193Z,98830.97
